Decoded Metar for CYBC (BAIE COMEAU in QC, CANADA) (IATA:YBC) | Meteo·Mobile Aviation Weather
aviador You're here:

CYBC Decoded Metar

BAIE COMEAU in QC, CANADA
Report Time2018-12-11 01:00:00
UTC Time2018-12-11 01:58:26
Flight Rules vfr VFR
Wind270° at 08 kt
W.Decomp.*RWY 28: 7.9 kt HW 1.4 kt RCW
W.Rank270° ranks 8
Current wind is above 270° avg. (7.4)
Visibility9999 m
Phenomena:N/A
Clouds:N/A
Expected CloudBase > 1,600 ft AGL from Temp-Dew spread
CeilingNone
Temp-14°C (ISA -29)
Dew Point-18°C (72% RH)
AAT-20.4°C
QNH1019 hPa
Density Alt-3,757 ft
Elevation72 ft
Report Wrong Elevation
Raw Report
CYBC 110100Z AUTO 27008KT 9SM CLR M14/M18 A3009 RMK SLP193=

Extra information for CYBC:More info

Metar Taf Metar & Taf Last 4 Metars F.Rules Stats Wind Profile Meteogram Temp Stats Airport Information Weather charts Add Link Nearby VenuesMetar ALERT Operation Metar Decoded Social comments